sensor_id;sensor_type;location;lat;lon;timestamp;temperature;humidity
49821;DHT22;36893;52.520;13.450;2023-11-21T00:03:25;19.90;96.70
49821;DHT22;36893;52.520;13.450;2023-11-21T00:13:28;19.90;96.70
49821;DHT22;36893;52.520;13.450;2023-11-21T00:23:29;20.00;96.70
49821;DHT22;36893;52.520;13.450;2023-11-21T00:33:29;20.00;96.60
49821;DHT22;36893;52.520;13.450;2023-11-21T00:43:30;20.00;96.60
49821;DHT22;36893;52.520;13.450;2023-11-21T00:53:31;20.10;96.60
49821;DHT22;36893;52.520;13.450;2023-11-21T01:03:32;20.10;96.60
49821;DHT22;36893;52.520;13.450;2023-11-21T01:13:32;20.10;96.60
49821;DHT22;36893;52.520;13.450;2023-11-21T01:23:33;20.10;96.60
49821;DHT22;36893;52.520;13.450;2023-11-21T01:33:33;20.10;96.60
49821;DHT22;36893;52.520;13.450;2023-11-21T01:43:34;20.10;96.60
49821;DHT22;36893;52.520;13.450;2023-11-21T01:53:35;20.10;96.60
49821;DHT22;36893;52.520;13.450;2023-11-21T02:03:37;20.10;96.60
49821;DHT22;36893;52.520;13.450;2023-11-21T02:13:37;20.20;96.60
49821;DHT22;36893;52.520;13.450;2023-11-21T02:23:38;20.20;96.60
49821;DHT22;36893;52.520;13.450;2023-11-21T02:33:42;20.20;96.60
49821;DHT22;36893;52.520;13.450;2023-11-21T02:43:44;20.20;96.60
49821;DHT22;36893;52.520;13.450;2023-11-21T02:53:44;20.20;96.60
49821;DHT22;36893;52.520;13.450;2023-11-21T03:03:46;20.20;96.50
49821;DHT22;36893;52.520;13.450;2023-11-21T03:13:51;20.20;96.50
49821;DHT22;36893;52.520;13.450;2023-11-21T03:23:52;20.20;96.50
49821;DHT22;36893;52.520;13.450;2023-11-21T03:33:53;20.20;96.50
49821;DHT22;36893;52.520;13.450;2023-11-21T03:43:54;20.20;96.50
49821;DHT22;36893;52.520;13.450;2023-11-21T03:53:54;20.20;96.50
49821;DHT22;36893;52.520;13.450;2023-11-21T04:03:55;20.20;96.40
49821;DHT22;36893;52.520;13.450;2023-11-21T04:13:55;20.20;96.40
49821;DHT22;36893;52.520;13.450;2023-11-21T04:23:56;20.20;96.40
49821;DHT22;36893;52.520;13.450;2023-11-21T04:33:57;20.30;96.40
49821;DHT22;36893;52.520;13.450;2023-11-21T04:43:57;20.20;96.40
49821;DHT22;36893;52.520;13.450;2023-11-21T04:54:00;20.20;96.40
49821;DHT22;36893;52.520;13.450;2023-11-21T05:04:01;20.20;96.40
49821;DHT22;36893;52.520;13.450;2023-11-21T05:14:02;20.20;96.30
49821;DHT22;36893;52.520;13.450;2023-11-21T05:24:04;20.20;96.30
49821;DHT22;36893;52.520;13.450;2023-11-21T05:34:05;20.20;96.30
49821;DHT22;36893;52.520;13.450;2023-11-21T05:44:06;20.20;96.30
49821;DHT22;36893;52.520;13.450;2023-11-21T05:54:07;20.20;96.20
49821;DHT22;36893;52.520;13.450;2023-11-21T06:04:08;20.20;96.20
49821;DHT22;36893;52.520;13.450;2023-11-21T06:14:09;20.20;96.30
49821;DHT22;36893;52.520;13.450;2023-11-21T06:24:11;20.20;96.20
49821;DHT22;36893;52.520;13.450;2023-11-21T06:34:11;20.20;96.20
49821;DHT22;36893;52.520;13.450;2023-11-21T06:44:12;20.20;96.10
49821;DHT22;36893;52.520;13.450;2023-11-21T06:54:13;20.20;96.10
49821;DHT22;36893;52.520;13.450;2023-11-21T07:04:14;20.20;96.10
49821;DHT22;36893;52.520;13.450;2023-11-21T07:14:15;20.30;96.10
49821;DHT22;36893;52.520;13.450;2023-11-21T07:24:17;20.20;96.00
49821;DHT22;36893;52.520;13.450;2023-11-21T07:34:19;20.20;96.00
49821;DHT22;36893;52.520;13.450;2023-11-21T07:44:21;20.20;96.00
49821;DHT22;36893;52.520;13.450;2023-11-21T07:54:21;20.20;96.00
49821;DHT22;36893;52.520;13.450;2023-11-21T08:04:22;20.20;96.00
49821;DHT22;36893;52.520;13.450;2023-11-21T08:14:23;20.20;96.00
49821;DHT22;36893;52.520;13.450;2023-11-21T08:24:27;20.20;96.00
49821;DHT22;36893;52.520;13.450;2023-11-21T08:34:28;20.20;95.90
49821;DHT22;36893;52.520;13.450;2023-11-21T08:44:28;20.20;95.90
49821;DHT22;36893;52.520;13.450;2023-11-21T08:54:31;20.20;95.90
49821;DHT22;36893;52.520;13.450;2023-11-21T09:04:31;20.20;95.80
49821;DHT22;36893;52.520;13.450;2023-11-21T09:14:32;20.20;95.80
49821;DHT22;36893;52.520;13.450;2023-11-21T09:24:33;20.20;95.80
49821;DHT22;36893;52.520;13.450;2023-11-21T09:34:34;20.20;95.70
49821;DHT22;36893;52.520;13.450;2023-11-21T09:55:10;20.20;95.70
49821;DHT22;36893;52.520;13.450;2023-11-21T10:05:16;20.20;95.60
49821;DHT22;36893;52.520;13.450;2023-11-21T10:15:18;20.20;95.60
49821;DHT22;36893;52.520;13.450;2023-11-21T10:25:18;20.20;95.60
49821;DHT22;36893;52.520;13.450;2023-11-21T10:35:20;20.20;95.60
49821;DHT22;36893;52.520;13.450;2023-11-21T10:45:21;20.20;95.60
49821;DHT22;36893;52.520;13.450;2023-11-21T10:55:23;20.20;95.60
49821;DHT22;36893;52.520;13.450;2023-11-21T11:05:27;20.20;95.60
49821;DHT22;36893;52.520;13.450;2023-11-21T11:15:29;20.30;95.70
49821;DHT22;36893;52.520;13.450;2023-11-21T11:25:44;20.30;95.70
49821;DHT22;36893;52.520;13.450;2023-11-21T11:36:17;20.30;95.70
49821;DHT22;36893;52.520;13.450;2023-11-21T11:46:43;20.30;95.70
49821;DHT22;36893;52.520;13.450;2023-11-21T11:56:47;20.20;95.60
49821;DHT22;36893;52.520;13.450;2023-11-21T12:06:52;20.20;95.60
49821;DHT22;36893;52.520;13.450;2023-11-21T12:16:56;20.20;95.60
49821;DHT22;36893;52.520;13.450;2023-11-21T12:26:57;20.20;95.60
49821;DHT22;36893;52.520;13.450;2023-11-21T12:36:58;20.20;95.60
49821;DHT22;36893;52.520;13.450;2023-11-21T12:46:59;20.20;95.60
49821;DHT22;36893;52.520;13.450;2023-11-21T12:57:00;20.20;95.60
49821;DHT22;36893;52.520;13.450;2023-11-21T13:07:05;20.20;95.60
49821;DHT22;36893;52.520;13.450;2023-11-21T13:17:14;20.20;95.50
49821;DHT22;36893;52.520;13.450;2023-11-21T13:27:15;20.20;95.50
49821;DHT22;36893;52.520;13.450;2023-11-21T13:37:16;20.20;95.40
49821;DHT22;36893;52.520;13.450;2023-11-21T13:47:16;20.20;95.40
49821;DHT22;36893;52.520;13.450;2023-11-21T13:57:17;20.20;95.40
49821;DHT22;36893;52.520;13.450;2023-11-21T14:07:18;20.10;95.30
49821;DHT22;36893;52.520;13.450;2023-11-21T14:17:36;20.20;95.30
49821;DHT22;36893;52.520;13.450;2023-11-21T14:27:38;20.10;95.30
49821;DHT22;36893;52.520;13.450;2023-11-21T14:37:39;20.10;95.30
49821;DHT22;36893;52.520;13.450;2023-11-21T14:47:39;20.10;95.20
49821;DHT22;36893;52.520;13.450;2023-11-21T14:57:44;20.10;95.20
49821;DHT22;36893;52.520;13.450;2023-11-21T15:07:50;20.10;95.10
49821;DHT22;36893;52.520;13.450;2023-11-21T15:17:52;20.10;95.10
49821;DHT22;36893;52.520;13.450;2023-11-21T15:27:53;20.10;95.10
49821;DHT22;36893;52.520;13.450;2023-11-21T15:37:54;20.10;95.10
49821;DHT22;36893;52.520;13.450;2023-11-21T15:47:58;20.10;95.00
49821;DHT22;36893;52.520;13.450;2023-11-21T15:58:00;20.10;95.00
49821;DHT22;36893;52.520;13.450;2023-11-21T16:08:04;20.10;95.00
49821;DHT22;36893;52.520;13.450;2023-11-21T16:18:04;20.10;94.90
49821;DHT22;36893;52.520;13.450;2023-11-21T16:28:05;20.10;94.90
49821;DHT22;36893;52.520;13.450;2023-11-21T16:38:06;20.10;94.90
49821;DHT22;36893;52.520;13.450;2023-11-21T16:48:06;20.10;94.80
49821;DHT22;36893;52.520;13.450;2023-11-21T16:58:08;20.10;94.80
49821;DHT22;36893;52.520;13.450;2023-11-21T17:08:08;20.10;94.80
49821;DHT22;36893;52.520;13.450;2023-11-21T17:18:11;20.10;94.70
49821;DHT22;36893;52.520;13.450;2023-11-21T17:28:12;20.10;94.70
49821;DHT22;36893;52.520;13.450;2023-11-21T17:38:13;20.10;94.60
49821;DHT22;36893;52.520;13.450;2023-11-21T17:48:13;20.00;94.60
49821;DHT22;36893;52.520;13.450;2023-11-21T17:58:14;20.10;94.60
49821;DHT22;36893;52.520;13.450;2023-11-21T18:08:16;20.10;94.50
49821;DHT22;36893;52.520;13.450;2023-11-21T18:18:16;20.00;94.50
49821;DHT22;36893;52.520;13.450;2023-11-21T18:28:17;20.10;94.50
49821;DHT22;36893;52.520;13.450;2023-11-21T18:38:18;20.00;94.40
49821;DHT22;36893;52.520;13.450;2023-11-21T18:48:19;20.00;94.40
49821;DHT22;36893;52.520;13.450;2023-11-21T18:58:20;20.00;94.40
49821;DHT22;36893;52.520;13.450;2023-11-21T19:08:20;20.00;94.30
49821;DHT22;36893;52.520;13.450;2023-11-21T19:18:21;20.00;94.30
49821;DHT22;36893;52.520;13.450;2023-11-21T19:28:22;20.00;94.20
49821;DHT22;36893;52.520;13.450;2023-11-21T19:38:23;20.00;94.20
49821;DHT22;36893;52.520;13.450;2023-11-21T19:48:24;20.00;94.20
49821;DHT22;36893;52.520;13.450;2023-11-21T19:58:26;20.00;94.10
49821;DHT22;36893;52.520;13.450;2023-11-21T20:08:27;20.10;94.10
49821;DHT22;36893;52.520;13.450;2023-11-21T20:18:31;20.00;94.10
49821;DHT22;36893;52.520;13.450;2023-11-21T20:28:31;20.00;94.40
49821;DHT22;36893;52.520;13.450;2023-11-21T20:38:32;20.00;94.00
49821;DHT22;36893;52.520;13.450;2023-11-21T20:48:33;20.00;94.00
49821;DHT22;36893;52.520;13.450;2023-11-21T20:58:33;20.00;93.90
49821;DHT22;36893;52.520;13.450;2023-11-21T21:08:35;20.00;94.00
49821;DHT22;36893;52.520;13.450;2023-11-21T21:18:35;20.00;93.90
49821;DHT22;36893;52.520;13.450;2023-11-21T21:28:37;20.00;93.90
49821;DHT22;36893;52.520;13.450;2023-11-21T21:38:37;19.90;93.80
49821;DHT22;36893;52.520;13.450;2023-11-21T21:48:39;20.00;94.20
49821;DHT22;36893;52.520;13.450;2023-11-21T21:58:40;20.00;93.80
49821;DHT22;36893;52.520;13.450;2023-11-21T22:08:41;20.00;93.80
49821;DHT22;36893;52.520;13.450;2023-11-21T22:18:42;20.00;93.80
49821;DHT22;36893;52.520;13.450;2023-11-21T22:28:43;20.00;93.70
49821;DHT22;36893;52.520;13.450;2023-11-21T22:38:43;20.00;93.70
49821;DHT22;36893;52.520;13.450;2023-11-21T22:48:44;20.00;93.70
49821;DHT22;36893;52.520;13.450;2023-11-21T22:58:45;20.10;93.70
49821;DHT22;36893;52.520;13.450;2023-11-21T23:08:46;20.00;93.70
49821;DHT22;36893;52.520;13.450;2023-11-21T23:18:47;20.10;93.70
49821;DHT22;36893;52.520;13.450;2023-11-21T23:28:51;20.00;93.60
49821;DHT22;36893;52.520;13.450;2023-11-21T23:38:51;20.00;93.60
49821;DHT22;36893;52.520;13.450;2023-11-21T23:48:52;20.10;93.60
49821;DHT22;36893;52.520;13.450;2023-11-21T23:58:54;20.00;93.60
